Time;durP1;ratioP1;P1;durP2;ratioP2;P2;SDS_P1;SDS_P2;PMS_P1;PMS_P2;Temp;Humidity;BMP_temperature;BMP_pressure;BME280_temperature;BME280_humidity;BME280_pressure;Samples;Min_cycle;Max_cycle;Signal;HPM_P1;HPM_P2
2022/01/01 00:05:51;;;;;;;30.73;21.67;;;;;;;9.36;100.00;99942.81;20971803;28;20241;-61
2022/01/01 00:15:54;;;;;;;34.57;23.63;;;;;;;9.34;100.00;99944.72;20971809;28;20235;-60
2022/01/01 00:25:57;;;;;;;34.97;22.13;;;;;;;9.32;100.00;99973.25;20971353;28;20223;-63
2022/01/01 00:36:01;;;;;;;27.47;19.47;;;;;;;9.34;100.00;99990.84;20997192;28;22242;-63
2022/01/01 00:46:04;;;;;;;23.93;15.33;;;;;;;9.46;100.00;100002.50;21017434;28;20289;-62
2022/01/01 00:56:07;;;;;;;16.20;12.47;;;;;;;9.58;100.00;100023.03;20955748;28;20259;-62
2022/01/01 01:26:03;;;;;;;17.57;14.20;;;;;;;9.63;100.00;100052.91;21141455;27;20329;-62
2022/01/01 01:36:07;;;;;;;17.93;13.20;;;;;;;9.53;100.00;100070.44;21056568;28;20464;-63
2022/01/01 01:46:13;;;;;;;19.53;13.37;;;;;;;9.42;100.00;100078.22;21054332;28;20226;-61
2022/01/01 02:06:12;;;;;;;12.00;9.73;;;;;;;9.29;100.00;100090.63;21149612;27;20566;-64
2022/01/01 02:26:12;;;;;;;12.00;8.60;;;;;;;9.20;100.00;100101.81;21120559;27;1337151;-61
2022/01/01 02:36:15;;;;;;;11.40;7.40;;;;;;;8.90;100.00;100124.06;21140488;28;20235;-61
2022/01/01 02:46:19;;;;;;;8.13;6.03;;;;;;;8.79;100.00;100134.50;21140423;28;20295;-62
2022/01/01 02:56:22;;;;;;;9.10;6.00;;;;;;;8.82;100.00;100134.28;21140175;28;20627;-63
2022/01/01 03:06:28;;;;;;;8.17;6.00;;;;;;;8.73;100.00;100150.81;21138927;28;20232;-62
2022/01/01 03:16:31;;;;;;;7.43;5.93;;;;;;;8.72;100.00;100159.75;21136978;28;20236;-62
2022/01/01 03:26:35;;;;;;;8.93;6.50;;;;;;;8.64;100.00;100159.34;21136253;28;20221;-62
2022/01/01 03:36:38;;;;;;;7.93;5.23;;;;;;;8.63;100.00;100166.47;21084925;28;20264;-65
2022/01/01 03:46:41;;;;;;;4.53;4.03;;;;;;;8.56;100.00;100185.56;21077637;28;20233;-62
2022/01/01 04:06:57;;;;;;;4.67;3.90;;;;;;;8.49;100.00;100229.38;21059556;27;20625;-61
2022/01/01 04:26:57;;;;;;;4.17;2.63;;;;;;;8.42;100.00;100241.31;21043637;27;20563;-62
2022/01/01 04:37:01;;;;;;;2.13;1.97;;;;;;;8.32;100.00;100243.66;21056555;27;20228;-63
2022/01/01 04:57:01;;;;;;;3.53;3.10;;;;;;;8.39;100.00;100273.41;21058080;27;20560;-61
2022/01/01 05:07:07;;;;;;;5.27;3.97;;;;;;;8.42;100.00;100281.22;21005582;28;20306;-65
2022/01/01 05:17:11;;;;;;;4.40;4.00;;;;;;;8.30;100.00;100302.19;20971700;28;20233;-65
2022/01/01 05:37:13;;;;;;;2.67;2.47;;;;;;;8.13;100.00;100335.94;21024663;27;20563;-62
2022/01/01 05:47:16;;;;;;;2.37;2.20;;;;;;;8.12;100.00;100339.53;20973779;28;20256;-61
2022/01/01 05:57:20;;;;;;;2.93;2.40;;;;;;;8.07;100.00;100347.75;20970024;28;20311;-62
2022/01/01 06:07:23;;;;;;;2.90;2.70;;;;;;;8.01;100.00;100358.72;20971782;28;20707;-62
2022/01/01 06:27:24;;;;;;;3.10;2.90;;;;;;;7.94;100.00;100379.44;21161343;27;20381;-60
2022/01/01 06:37:27;;;;;;;3.23;2.93;;;;;;;7.90;100.00;100395.63;21141944;28;20294;-60
2022/01/01 06:47:31;;;;;;;2.30;2.10;;;;;;;7.83;100.00;100399.53;21140236;28;20561;-63
2022/01/01 06:57:34;;;;;;;2.57;2.37;;;;;;;7.86;100.00;100405.53;21138741;28;20577;-64
2022/01/01 07:07:38;;;;;;;2.70;2.47;;;;;;;7.87;100.00;100425.00;21138625;28;20225;-62
2022/01/01 07:27:37;;;;;;;3.00;2.80;;;;;;;8.02;100.00;100440.16;21061395;27;21106;-61
2022/01/01 07:37:41;;;;;;;2.67;2.47;;;;;;;7.99;100.00;100440.31;21057306;27;20268;-60
2022/01/01 07:47:44;;;;;;;3.00;2.80;;;;;;;7.94;100.00;100450.31;21055914;27;20705;-58
2022/01/01 08:07:47;;;;;;;3.83;3.33;;;;;;;8.29;100.00;100449.34;21057231;27;20589;-61
2022/01/01 08:28:00;;;;;;;5.57;5.17;;;;;;;8.26;100.00;100481.41;21062867;27;1414804;-59
2022/01/01 08:38:04;;;;;;;7.67;6.97;;;;;;;8.28;100.00;100489.31;21027887;28;20219;-59
2022/01/01 08:48:09;;;;;;;6.53;6.00;;;;;;;8.44;100.00;100489.41;21025361;28;20234;-60
2022/01/01 09:08:09;;;;;;;5.27;4.77;;;;;;;8.64;100.00;100502.50;20955870;27;20634;-59
2022/01/01 09:18:12;;;;;;;4.50;4.10;;;;;;;8.89;100.00;100497.56;20961850;28;20380;-61
2022/01/01 09:28:17;;;;;;;5.23;4.73;;;;;;;8.87;100.00;100494.13;20961622;28;20226;-62
2022/01/01 09:38:20;;;;;;;6.80;5.67;;;;;;;8.81;100.00;100505.13;20959379;28;20229;-63
2022/01/01 09:48:24;;;;;;;6.30;5.80;;;;;;;8.97;100.00;100511.31;20997801;27;20301;-64
2022/01/01 09:58:30;;;;;;;7.77;6.77;;;;;;;9.16;100.00;100505.84;21079792;27;20257;-63
2022/01/01 10:08:34;;;;;;;6.53;5.93;;;;;;;9.30;100.00;100507.72;21050998;27;20218;-62
2022/01/01 10:18:40;;;;;;;7.20;6.50;;;;;;;9.35;100.00;100513.66;21030304;27;20278;-62
2022/01/01 10:28:44;;;;;;;5.07;4.60;;;;;;;9.34;100.00;100526.13;20993664;28;20233;-61
2022/01/01 10:38:47;;;;;;;5.67;5.27;;;;;;;9.75;100.00;100534.44;21025826;28;20231;-61
2022/01/01 10:48:58;;;;;;;5.83;5.43;;;;;;;9.87;100.00;100542.69;20990403;28;20298;-61
2022/01/01 10:59:03;;;;;;;6.00;5.60;;;;;;;9.64;100.00;100570.63;20991596;28;20284;-61
2022/01/01 11:09:10;;;;;;;5.43;5.03;;;;;;;9.54;100.00;100580.94;20990475;28;20254;-61
2022/01/01 11:19:13;;;;;;;5.20;4.80;;;;;;;9.60;100.00;100575.28;20957450;28;20232;-61
2022/01/01 11:29:18;;;;;;;4.07;3.77;;;;;;;9.44;100.00;100598.38;20802724;28;20646;-61
2022/01/01 11:39:23;;;;;;;3.53;3.23;;;;;;;9.25;100.00;100600.34;20799368;28;20244;-60
2022/01/01 11:59:30;;;;;;;1.50;1.40;;;;;;;9.21;100.00;100622.72;21037430;27;20939;-60
2022/01/01 12:09:51;;;;;;;2.00;1.90;;;;;;;9.16;100.00;100643.44;21031179;28;20241;-61
2022/01/01 12:19:57;;;;;;;1.53;1.43;;;;;;;9.08;100.00;100675.78;21031595;28;20651;-61
2022/01/01 12:49:54;;;;;;;2.67;2.40;;;;;;;8.64;100.00;100691.38;20872231;28;20627;-60
2022/01/01 12:59:58;;;;;;;1.87;1.50;;;;;;;8.73;100.00;100704.19;20868225;28;20227;-62
2022/01/01 13:10:01;;;;;;;2.17;1.97;;;;;;;8.57;100.00;100729.88;20864354;28;20306;-61
2022/01/01 13:20:05;;;;;;;5.50;5.00;;;;;;;8.32;100.00;100777.22;20863343;28;20254;-63
2022/01/01 13:30:09;;;;;;;2.43;1.87;;;;;;;7.95;100.00;100771.78;20832548;28;20239;-62
2022/01/01 14:00:08;;;;;;;2.87;1.90;;;;;;;7.59;100.00;100838.06;20920316;27;20679;-61
2022/01/01 14:10:20;;;;;;;3.20;2.10;;;;;;;7.50;100.00;100856.16;20906834;28;20226;-61
2022/01/01 14:20:31;;;;;;;4.30;2.90;;;;;;;7.45;100.00;100864.34;20889983;28;20300;-63
2022/01/01 14:30:35;;;;;;;3.57;2.47;;;;;;;7.37;100.00;100884.16;20905494;28;20242;-60
2022/01/01 14:40:39;;;;;;;3.20;2.67;;;;;;;7.31;100.00;100892.41;20868266;28;20313;-62
2022/01/01 14:51:07;;;;;;;4.13;2.87;;;;;;;7.24;100.00;100907.72;20885594;28;20750;-65
2022/01/01 15:01:10;;;;;;;3.57;2.70;;;;;;;7.23;100.00;100916.63;20902360;28;20223;-63
2022/01/01 15:11:15;;;;;;;3.40;2.67;;;;;;;7.17;100.00;100946.06;20834935;28;20230;-61
2022/01/01 15:21:39;;;;;;;3.73;3.00;;;;;;;7.16;100.00;100968.22;20846241;28;20241;-63
2022/01/01 15:33:10;;;;;;;5.07;4.03;;;;;;;7.09;100.00;100977.34;20835186;28;20616;-62
2022/01/01 15:42:21;;;;;;;3.87;3.23;;;;;;;6.97;100.00;100983.13;20848385;28;20230;-61
2022/01/01 15:52:25;;;;;;;4.23;3.80;;;;;;;6.89;100.00;100999.34;20823973;28;20237;-60
2022/01/01 16:02:51;;;;;;;4.23;3.33;;;;;;;6.85;100.00;101016.31;20843862;28;20397;-62
2022/01/01 16:12:56;;;;;;;8.37;5.87;;;;;;;6.81;100.00;101015.56;20836178;28;20239;-62
2022/01/01 16:23:00;;;;;;;6.57;5.70;;;;;;;6.75;100.00;101013.16;20840865;28;20707;-62
2022/01/01 16:33:04;;;;;;;8.07;6.60;;;;;;;6.70;100.00;101025.69;20827941;28;20250;-61
2022/01/01 16:43:12;;;;;;;10.37;7.07;;;;;;;6.60;100.00;101048.19;20832027;28;20270;-60
2022/01/01 16:53:17;;;;;;;9.23;7.63;;;;;;;6.55;100.00;101065.16;20844365;28;20230;-61
2022/01/01 17:03:46;;;;;;;7.03;4.43;;;;;;;6.38;100.00;101074.59;20846951;28;20300;-64
2022/01/01 17:13:50;;;;;;;6.30;4.20;;;;;;;6.18;100.00;101092.94;20842894;28;20240;-61
2022/01/01 17:24:08;;;;;;;6.47;4.50;;;;;;;6.14;100.00;101116.06;20847113;28;20222;-60
2022/01/01 17:44:34;;;;;;;4.57;3.10;;;;;;;5.95;100.00;101127.28;20831434;28;20288;-64
2022/01/01 18:04:35;;;;;;;4.73;3.33;;;;;;;5.77;100.00;101160.50;20969182;27;20719;-59
2022/01/01 18:14:42;;;;;;;4.87;3.53;;;;;;;5.82;100.00;101171.81;20989807;27;20333;-62
2022/01/01 18:24:47;;;;;;;4.13;2.93;;;;;;;5.70;100.00;101206.63;21011854;28;20573;-62
2022/01/01 18:34:52;;;;;;;4.60;2.90;;;;;;;5.54;100.00;101215.94;21007552;27;20599;-63
2022/01/01 18:44:56;;;;;;;2.97;2.23;;;;;;;5.51;100.00;101221.31;21010550;27;20241;-63
2022/01/01 18:55:07;;;;;;;3.27;2.47;;;;;;;5.51;100.00;101206.31;21009846;28;20227;-62
2022/01/01 19:05:14;;;;;;;3.03;2.00;;;;;;;5.53;100.00;101240.69;21007771;27;20226;-62
2022/01/01 19:15:17;;;;;;;4.43;2.70;;;;;;;5.54;100.00;101260.94;20956868;28;20231;-61
2022/01/01 19:25:21;;;;;;;4.87;3.37;;;;;;;5.51;100.00;101264.53;20949233;28;20270;-63
2022/01/01 19:35:25;;;;;;;6.07;4.00;;;;;;;5.49;100.00;101276.09;20948642;28;20692;-62
2022/01/01 19:45:30;;;;;;;6.00;3.57;;;;;;;5.40;100.00;101267.50;20951485;28;20575;-62
2022/01/01 19:55:38;;;;;;;5.27;3.70;;;;;;;5.41;100.00;101290.41;20933438;28;20301;-63
2022/01/01 20:05:44;;;;;;;4.33;2.10;;;;;;;5.38;100.00;101279.91;20950173;28;20223;-63
2022/01/01 20:15:47;;;;;;;3.77;2.70;;;;;;;5.41;100.00;101301.00;20946174;28;20232;-63
2022/01/01 20:25:51;;;;;;;3.37;2.43;;;;;;;5.36;100.00;101313.47;20951476;28;20278;-63
2022/01/01 20:35:54;;;;;;;2.40;2.20;;;;;;;5.23;100.00;101301.47;20947900;28;20724;-62
2022/01/01 20:45:58;;;;;;;2.47;2.20;;;;;;;5.20;100.00;101317.44;20926065;28;20227;-61
2022/01/01 20:56:01;;;;;;;2.57;2.37;;;;;;;5.22;100.00;101323.56;20944517;28;20227;-61
2022/01/01 21:06:09;;;;;;;2.17;2.07;;;;;;;5.02;100.00;101320.56;20942122;28;20259;-62
2022/01/01 21:26:11;;;;;;;4.47;3.40;;;;;;;4.45;100.00;101284.09;21062226;28;20554;-63
2022/01/01 21:36:17;;;;;;;5.40;2.93;;;;;;;4.51;100.00;101326.22;21035488;28;20228;-63
2022/01/01 21:46:41;;;;;;;4.57;3.27;;;;;;;4.64;100.00;101327.66;21064539;28;20248;-62
2022/01/01 21:57:05;;;;;;;3.47;2.43;;;;;;;4.66;100.00;101323.22;21060787;28;20238;-62
2022/01/01 22:07:29;;;;;;;3.10;2.60;;;;;;;4.69;100.00;101320.50;21041420;28;20222;-63
2022/01/01 22:17:52;;;;;;;3.03;2.73;;;;;;;4.64;100.00;101311.81;21051014;28;20221;-63
2022/01/01 22:28:16;;;;;;;4.10;3.70;;;;;;;4.53;100.00;101312.97;21030713;28;20796;-62
2022/01/01 22:38:40;;;;;;;3.87;3.20;;;;;;;4.52;100.00;101317.38;21006019;28;20234;-62
2022/01/01 22:59:01;;;;;;;4.70;3.70;;;;;;;4.63;100.00;101310.06;21100511;27;20630;-62
2022/01/01 23:09:24;;;;;;;5.00;3.70;;;;;;;4.64;100.00;101306.50;21098135;27;20653;-62
2022/01/01 23:29:43;;;;;;;5.57;4.30;;;;;;;4.64;100.00;101316.22;20938057;27;21134;-62
2022/01/01 23:40:06;;;;;;;4.53;3.80;;;;;;;4.72;100.00;101308.97;20928906;28;20903;-62
2022/01/01 23:50:30;;;;;;;4.37;3.97;;;;;;;4.83;100.00;101300.78;20927867;28;20258;-61
